createdAt,value
2018-04-15T00:02:30.816Z,97.60
2018-04-15T00:07:22.945Z,99.20
2018-04-15T00:12:14.349Z,99.10
2018-04-15T00:17:05.870Z,99.60
2018-04-15T00:21:57.214Z,99.90
2018-04-15T00:26:48.660Z,99.90
2018-04-15T00:31:40.040Z,99.90
2018-04-15T00:36:31.414Z,99.90
2018-04-15T00:41:22.777Z,99.90
2018-04-15T00:46:14.929Z,99.90
2018-04-15T00:51:07.051Z,99.90
2018-04-15T00:55:58.431Z,99.90
2018-04-15T01:00:49.800Z,99.90
2018-04-15T01:05:41.182Z,99.90
2018-04-15T01:10:33.324Z,99.90
2018-04-15T01:15:25.451Z,99.90
2018-04-15T01:20:17.748Z,99.90
2018-04-15T01:25:09.094Z,99.90
2018-04-15T01:30:00.463Z,99.90
2018-04-15T01:34:51.856Z,99.90
2018-04-15T01:39:43.258Z,99.90
2018-04-15T01:44:34.671Z,99.90
2018-04-15T01:49:26.798Z,99.90
2018-04-15T01:54:18.167Z,99.90
2018-04-15T01:59:09.550Z,99.90
2018-04-15T02:04:00.884Z,99.90
2018-04-15T02:08:52.299Z,99.90
2018-04-15T02:13:43.723Z,99.90
2018-04-15T02:18:35.093Z,99.90
2018-04-15T02:23:26.499Z,99.90
2018-04-15T02:28:17.879Z,99.90
2018-04-15T02:33:10.348Z,99.90
2018-04-15T02:38:01.752Z,99.90
2018-04-15T02:42:53.901Z,99.90
2018-04-15T02:47:45.988Z,99.90
2018-04-15T02:52:37.373Z,99.90
2018-04-15T02:57:30.428Z,99.90
2018-04-15T03:02:21.875Z,99.90
2018-04-15T03:07:14.128Z,99.90
2018-04-15T03:12:06.248Z,99.90
2018-04-15T03:16:57.636Z,99.90
2018-04-15T03:21:49.005Z,99.90
2018-04-15T03:26:40.382Z,99.90
2018-04-15T03:31:32.456Z,99.90
2018-04-15T03:36:23.827Z,99.90
2018-04-15T03:41:15.226Z,99.90
2018-04-15T03:46:06.572Z,99.90
2018-04-15T03:50:57.958Z,99.90
2018-04-15T03:55:49.340Z,99.90
2018-04-15T04:00:40.712Z,99.90
2018-04-15T04:05:32.827Z,99.90
2018-04-15T04:10:24.967Z,99.90
2018-04-15T04:15:16.348Z,99.90
2018-04-15T04:20:20.784Z,99.90
2018-04-15T04:25:24.377Z,99.90
2018-04-15T04:30:16.482Z,99.90
2018-04-15T04:35:07.807Z,99.90
2018-04-15T04:39:59.193Z,99.90
2018-04-15T04:44:51.317Z,99.90
2018-04-15T04:49:42.734Z,99.90
2018-04-15T04:54:34.130Z,99.90
2018-04-15T04:59:25.559Z,99.90
2018-04-15T05:04:16.931Z,99.90
2018-04-15T05:09:08.307Z,99.90
2018-04-15T05:13:59.686Z,99.90
2018-04-15T05:18:51.919Z,99.90
2018-04-15T05:23:43.293Z,99.90
2018-04-15T05:28:34.687Z,99.90
2018-04-15T05:33:26.172Z,99.90
2018-04-15T05:38:18.242Z,99.90
2018-04-15T05:43:09.655Z,99.90
2018-04-15T05:48:01.799Z,99.90
2018-04-15T05:52:53.951Z,99.90
2018-04-15T05:57:46.160Z,99.90
2018-04-15T06:02:37.496Z,99.90
2018-04-15T06:07:29.619Z,99.90
2018-04-15T06:12:21.022Z,99.90
2018-04-15T06:17:12.393Z,99.90
2018-04-15T06:22:03.794Z,99.90
2018-04-15T06:26:55.166Z,99.90
2018-04-15T06:31:46.544Z,99.90
2018-04-15T06:36:37.967Z,99.90
2018-04-15T06:41:29.311Z,99.90
2018-04-15T06:46:20.707Z,99.90
2018-04-15T06:51:12.845Z,99.30
2018-04-15T06:56:04.201Z,99.20
2018-04-15T07:00:56.340Z,83.80
2018-04-15T07:05:48.455Z,84.80
2018-04-15T07:10:39.850Z,85.00
2018-04-15T07:15:31.248Z,90.30
2018-04-15T07:20:23.358Z,65.80
2018-04-15T07:25:14.722Z,65.60
2018-04-15T07:30:06.838Z,62.10
2018-04-15T07:34:58.198Z,61.90
2018-04-15T07:39:50.315Z,75.10
2018-04-15T07:44:41.724Z,75.00
2018-04-15T07:49:33.099Z,70.60
2018-04-15T07:54:24.488Z,69.60
2018-04-15T07:59:15.873Z,75.70
2018-04-15T08:04:08.000Z,80.10
2018-04-15T08:09:00.442Z,79.80
2018-04-15T08:13:51.784Z,79.90
2018-04-15T08:18:43.165Z,78.80
2018-04-15T08:23:34.548Z,85.00
2018-04-15T08:28:25.969Z,88.40
2018-04-15T08:33:17.336Z,87.60
2018-04-15T08:38:09.468Z,84.90
2018-04-15T08:43:00.850Z,85.70
2018-04-15T08:47:52.229Z,77.30
2018-04-15T08:52:43.602Z,70.50
2018-04-15T08:57:35.939Z,63.00
2018-04-15T09:02:27.303Z,59.70
2018-04-15T09:07:19.755Z,55.70
2018-04-15T09:12:11.143Z,55.70
2018-04-15T09:17:03.886Z,53.20
2018-04-15T09:21:56.005Z,52.40
2018-04-15T09:26:47.381Z,52.50
2018-04-15T09:31:39.485Z,51.90
2018-04-15T09:36:30.859Z,51.70
2018-04-15T09:41:22.972Z,53.50
2018-04-15T09:46:14.341Z,53.40
2018-04-15T09:51:06.455Z,50.90
2018-04-15T09:55:57.823Z,50.80
2018-04-15T10:00:49.977Z,50.30
2018-04-15T10:05:41.415Z,50.30
2018-04-15T10:10:32.809Z,51.20
2018-04-15T10:15:24.212Z,56.60
2018-04-15T10:20:15.607Z,58.70
2018-04-15T10:25:06.999Z,59.00
2018-04-15T10:29:58.429Z,59.00
2018-04-15T10:34:49.801Z,58.10
2018-04-15T10:39:41.185Z,56.20
2018-04-15T10:44:32.540Z,55.70
2018-04-15T10:49:24.697Z,59.00
2018-04-15T10:54:16.832Z,59.20
2018-04-15T10:59:08.996Z,59.90
2018-04-15T11:04:01.091Z,57.10
2018-04-15T11:08:52.479Z,57.00
2018-04-15T11:13:44.595Z,56.40
2018-04-15T11:18:35.980Z,56.40
2018-04-15T11:23:27.358Z,57.20
2018-04-15T11:28:18.736Z,57.80
2018-04-15T11:33:10.110Z,59.00
2018-04-15T11:38:01.480Z,56.60
2018-04-15T11:42:52.888Z,56.50
2018-04-15T11:47:44.261Z,55.50
2018-04-15T11:52:35.605Z,55.50
2018-04-15T11:57:27.030Z,55.30
2018-04-15T12:02:19.003Z,58.10
2018-04-15T12:07:10.501Z,56.30
2018-04-15T12:12:01.881Z,55.10
2018-04-15T12:16:53.263Z,55.00
2018-04-15T12:21:44.657Z,53.00
2018-04-15T12:26:36.788Z,51.40
2018-04-15T12:31:28.213Z,51.30
2018-04-15T12:36:19.610Z,54.10
2018-04-15T12:41:10.983Z,50.90
2018-04-15T12:46:02.379Z,48.20
2018-04-15T12:50:53.727Z,48.10
2018-04-15T12:55:45.122Z,47.70
2018-04-15T13:00:36.523Z,50.20
2018-04-15T13:05:28.671Z,49.20
2018-04-15T13:10:20.790Z,49.30
2018-04-15T13:15:12.203Z,49.20
2018-04-15T13:20:03.552Z,51.40
2018-04-15T13:24:54.972Z,47.70
2018-04-15T13:29:46.369Z,44.50
2018-04-15T13:34:37.743Z,47.50
2018-04-15T13:39:29.171Z,48.30
2018-04-15T13:44:20.521Z,48.40
2018-04-15T13:49:11.963Z,48.80
2018-04-15T13:54:04.125Z,46.30
2018-04-15T13:58:57.133Z,47.10
2018-04-15T14:03:48.521Z,47.10
2018-04-15T14:08:40.647Z,47.90
2018-04-15T14:13:32.833Z,47.80
2018-04-15T14:18:24.246Z,47.70
2018-04-15T14:23:16.332Z,45.50
2018-04-15T14:28:07.731Z,45.50
2018-04-15T14:32:59.815Z,46.30
2018-04-15T14:37:51.187Z,46.30
2018-04-15T14:42:42.589Z,43.50
2018-04-15T14:47:33.955Z,43.60
2018-04-15T14:52:26.103Z,43.80
2018-04-15T14:57:18.229Z,43.80
2018-04-15T15:02:09.640Z,43.80
2018-04-15T15:07:01.048Z,42.80
2018-04-15T15:11:52.411Z,40.60
2018-04-15T15:16:43.809Z,41.90
2018-04-15T15:21:35.182Z,41.10
2018-04-15T15:26:26.988Z,42.40
2018-04-15T15:31:18.382Z,42.50
2018-04-15T15:36:10.486Z,43.40
2018-04-15T15:41:02.090Z,43.30
2018-04-15T15:45:53.441Z,44.60
2018-04-15T15:50:44.809Z,46.20
2018-04-15T15:55:36.203Z,46.80
2018-04-15T16:00:27.581Z,47.70
2018-04-15T16:05:19.690Z,46.90
2018-04-15T16:10:11.083Z,46.80
2018-04-15T16:15:02.510Z,45.70
2018-04-15T16:19:53.895Z,46.10
2018-04-15T16:24:45.273Z,46.10
2018-04-15T16:29:36.644Z,47.70
2018-04-15T16:34:27.987Z,48.50
2018-04-15T16:39:19.387Z,49.30
2018-04-15T16:44:10.835Z,48.20
2018-04-15T16:49:02.167Z,48.50
2018-04-15T16:53:53.555Z,49.10
2018-04-15T16:58:44.949Z,49.30
2018-04-15T17:03:36.357Z,50.50
2018-04-15T17:08:27.753Z,51.20
2018-04-15T17:13:19.094Z,51.90
2018-04-15T17:18:10.454Z,53.00
2018-04-15T17:23:01.907Z,53.60
2018-04-15T17:27:53.323Z,54.20
2018-04-15T17:32:44.712Z,54.70
2018-04-15T17:37:36.087Z,55.90
2018-04-15T17:42:27.455Z,56.70
2018-04-15T17:47:19.569Z,58.50
2018-04-15T17:52:11.469Z,58.40
2018-04-15T17:57:02.834Z,59.50
2018-04-15T18:01:54.234Z,60.70
2018-04-15T18:06:45.617Z,61.50
2018-04-15T18:11:37.195Z,63.20
2018-04-15T18:16:28.529Z,63.80
2018-04-15T18:21:19.934Z,64.60
2018-04-15T18:26:12.021Z,66.70
2018-04-15T18:31:03.422Z,66.50
2018-04-15T18:35:54.806Z,68.30
2018-04-15T18:40:46.149Z,69.40
2018-04-15T18:45:37.578Z,70.90
2018-04-15T18:50:28.992Z,72.60
2018-04-15T18:55:21.033Z,72.80
2018-04-15T19:00:12.433Z,74.20
2018-04-15T19:05:03.841Z,74.60
2018-04-15T19:09:55.963Z,76.50
2018-04-15T19:14:47.387Z,76.40
2018-04-15T19:19:38.765Z,77.30
2018-04-15T19:24:30.875Z,79.40
2018-04-15T19:29:22.278Z,78.60
2018-04-15T19:34:13.631Z,80.30
2018-04-15T19:39:05.157Z,80.80
2018-04-15T19:43:56.580Z,82.20
2018-04-15T19:48:47.958Z,83.30
2018-04-15T19:53:41.031Z,83.10
2018-04-15T19:58:33.184Z,83.30
2018-04-15T20:03:24.598Z,83.20
2018-04-15T20:08:16.717Z,84.80
2018-04-15T20:13:08.088Z,84.70
2018-04-15T20:18:00.225Z,85.70
2018-04-15T20:22:52.365Z,86.60
2018-04-15T20:27:44.556Z,85.80
2018-04-15T20:32:35.937Z,88.40
2018-04-15T20:37:28.849Z,90.10
2018-04-15T20:42:20.227Z,90.10
2018-04-15T20:47:13.310Z,90.60
2018-04-15T20:52:04.687Z,90.50
2018-04-15T20:56:56.062Z,91.10
2018-04-15T21:01:48.911Z,92.30
2018-04-15T21:06:40.301Z,92.30
2018-04-15T21:11:31.689Z,92.80
2018-04-15T21:16:23.073Z,92.50
2018-04-15T21:21:14.467Z,91.60
2018-04-15T21:26:06.573Z,92.00
2018-04-15T21:30:57.964Z,92.00
2018-04-15T21:35:50.098Z,90.90
2018-04-15T21:40:42.184Z,91.00
2018-04-15T21:45:33.575Z,91.00
2018-04-15T21:50:25.682Z,91.90
2018-04-15T21:55:17.084Z,91.80
2018-04-15T22:00:08.499Z,92.90
2018-04-15T22:05:00.723Z,94.60
2018-04-15T22:09:52.192Z,94.60
2018-04-15T22:14:43.629Z,95.30
2018-04-15T22:19:35.750Z,96.10
2018-04-15T22:24:27.911Z,96.70
2018-04-15T22:29:20.072Z,97.20
2018-04-15T22:34:11.478Z,97.20
2018-04-15T22:39:03.641Z,97.80
2018-04-15T22:43:55.763Z,97.90
2018-04-15T22:48:47.953Z,97.80
2018-04-15T22:53:39.352Z,98.40
2018-04-15T22:58:37.911Z,98.60
2018-04-15T23:03:30.077Z,98.80
2018-04-15T23:08:23.160Z,99.10
2018-04-15T23:13:14.571Z,99.10
2018-04-15T23:18:05.967Z,99.40
2018-04-15T23:22:57.375Z,99.90
2018-04-15T23:27:49.484Z,99.90
2018-04-15T23:32:40.871Z,99.90
2018-04-15T23:37:32.816Z,99.90
2018-04-15T23:42:24.202Z,99.90
2018-04-15T23:47:16.334Z,99.90
2018-04-15T23:52:07.706Z,99.90
2018-04-15T23:56:59.872Z,99.90
